sensor_id;sensor_type;location;lat;lon;timestamp;pressure;altitude;pressure_sealevel;temperature;humidity
13068;BME280;6600;51.362;6.686;2022-09-21T00:00:36;102158.94;;;9.94;100.00
13068;BME280;6600;51.362;6.686;2022-09-21T00:03:01;102156.25;;;9.94;100.00
13068;BME280;6600;51.362;6.686;2022-09-21T00:05:27;102154.59;;;9.93;100.00
13068;BME280;6600;51.362;6.686;2022-09-21T00:07:53;102163.28;;;9.95;100.00
13068;BME280;6600;51.362;6.686;2022-09-21T00:10:19;102160.25;;;9.98;100.00
13068;BME280;6600;51.362;6.686;2022-09-21T00:12:47;102159.72;;;10.02;100.00
13068;BME280;6600;51.362;6.686;2022-09-21T00:15:13;102164.38;;;10.08;100.00
13068;BME280;6600;51.362;6.686;2022-09-21T00:17:40;102161.69;;;10.08;100.00
13068;BME280;6600;51.362;6.686;2022-09-21T00:20:05;102155.13;;;10.11;100.00
13068;BME280;6600;51.362;6.686;2022-09-21T00:22:32;102165.69;;;10.12;100.00
13068;BME280;6600;51.362;6.686;2022-09-21T00:24:58;102163.00;;;10.12;100.00
13068;BME280;6600;51.362;6.686;2022-09-21T00:27:23;102167.19;;;10.15;100.00
13068;BME280;6600;51.362;6.686;2022-09-21T00:30:04;102166.38;;;10.14;100.00
13068;BME280;6600;51.362;6.686;2022-09-21T00:32:31;102166.53;;;10.13;100.00
13068;BME280;6600;51.362;6.686;2022-09-21T00:34:57;102167.53;;;10.12;100.00
13068;BME280;6600;51.362;6.686;2022-09-21T00:37:23;102172.88;;;10.12;100.00
13068;BME280;6600;51.362;6.686;2022-09-21T00:39:49;102173.72;;;10.12;100.00
13068;BME280;6600;51.362;6.686;2022-09-21T00:42:24;102172.72;;;10.13;100.00
13068;BME280;6600;51.362;6.686;2022-09-21T00:44:50;102173.72;;;10.12;100.00
13068;BME280;6600;51.362;6.686;2022-09-21T00:47:18;102168.53;;;10.11;100.00
13068;BME280;6600;51.362;6.686;2022-09-21T00:49:48;102160.50;;;10.11;100.00
13068;BME280;6600;51.362;6.686;2022-09-21T00:52:15;102165.84;;;10.11;100.00
13068;BME280;6600;51.362;6.686;2022-09-21T00:54:48;102168.53;;;10.11;100.00
13068;BME280;6600;51.362;6.686;2022-09-21T00:57:15;102170.88;;;10.14;100.00
13068;BME280;6600;51.362;6.686;2022-09-21T00:59:43;102161.16;;;10.13;100.00
13068;BME280;6600;51.362;6.686;2022-09-21T01:02:09;102164.69;;;10.13;100.00
13068;BME280;6600;51.362;6.686;2022-09-21T01:04:35;102170.88;;;10.14;100.00
13068;BME280;6600;51.362;6.686;2022-09-21T01:07:07;102163.84;;;10.13;100.00
13068;BME280;6600;51.362;6.686;2022-09-21T01:09:37;102158.50;;;10.13;100.00
13068;BME280;6600;51.362;6.686;2022-09-21T01:15:28;102162.16;;;10.12;100.00
13068;BME280;6600;51.362;6.686;2022-09-21T01:18:02;102161.53;;;10.10;100.00
13068;BME280;6600;51.362;6.686;2022-09-21T01:20:51;102170.22;;;10.12;100.00
13068;BME280;6600;51.362;6.686;2022-09-21T01:29:37;102168.38;;;10.12;100.00
13068;BME280;6600;51.362;6.686;2022-09-21T01:32:25;102165.53;;;10.14;100.00
13068;BME280;6600;51.362;6.686;2022-09-21T01:34:58;102163.84;;;10.13;100.00
13068;BME280;6600;51.362;6.686;2022-09-21T01:37:32;102167.19;;;10.15;100.00
13068;BME280;6600;51.362;6.686;2022-09-21T01:40:03;102165.00;;;10.10;100.00
13068;BME280;6600;51.362;6.686;2022-09-21T01:42:32;102165.00;;;10.10;100.00
13068;BME280;6600;51.362;6.686;2022-09-21T01:45:01;102162.69;;;10.07;100.00
13068;BME280;6600;51.362;6.686;2022-09-21T01:47:28;102153.34;;;10.03;100.00
13068;BME280;6600;51.362;6.686;2022-09-21T01:49:59;102156.69;;;10.05;100.00
13068;BME280;6600;51.362;6.686;2022-09-21T01:52:48;102154.19;;;10.04;100.00
13068;BME280;6600;51.362;6.686;2022-09-21T01:55:29;102152.84;;;10.00;100.00
13068;BME280;6600;51.362;6.686;2022-09-21T02:00:29;102162.44;;;9.94;100.00
13068;BME280;6600;51.362;6.686;2022-09-21T02:03:27;102161.59;;;9.94;100.00
13068;BME280;6600;51.362;6.686;2022-09-21T02:05:55;102164.28;;;9.94;100.00
13068;BME280;6600;51.362;6.686;2022-09-21T02:08:22;102151.09;;;9.92;100.00
13068;BME280;6600;51.362;6.686;2022-09-21T02:10:51;102156.31;;;9.86;100.00
13068;BME280;6600;51.362;6.686;2022-09-21T02:13:18;102167.84;;;9.86;100.00
13068;BME280;6600;51.362;6.686;2022-09-21T02:21:09;102164.03;;;9.81;100.00
13068;BME280;6600;51.362;6.686;2022-09-21T02:23:49;102165.03;;;9.80;100.00
13068;BME280;6600;51.362;6.686;2022-09-21T02:26:34;102173.41;;;9.77;100.00
13068;BME280;6600;51.362;6.686;2022-09-21T02:31:54;102164.91;;;9.73;100.00
13068;BME280;6600;51.362;6.686;2022-09-21T02:34:43;102164.91;;;9.73;100.00
13068;BME280;6600;51.362;6.686;2022-09-21T02:37:17;102165.72;;;9.74;100.00
13068;BME280;6600;51.362;6.686;2022-09-21T02:42:23;102162.56;;;9.70;100.00
13068;BME280;6600;51.362;6.686;2022-09-21T02:45:00;102165.09;;;9.72;100.00
13068;BME280;6600;51.362;6.686;2022-09-21T02:47:38;102159.06;;;9.70;100.00
13068;BME280;6600;51.362;6.686;2022-09-21T02:50:13;102168.13;;;9.69;100.00
13068;BME280;6600;51.362;6.686;2022-09-21T02:52:41;102165.28;;;9.62;100.00
13068;BME280;6600;51.362;6.686;2022-09-21T02:55:08;102162.09;;;9.58;100.00
13068;BME280;6600;51.362;6.686;2022-09-21T02:57:35;102163.13;;;9.57;100.00
13068;BME280;6600;51.362;6.686;2022-09-21T03:00:02;102165.13;;;9.55;100.00
13068;BME280;6600;51.362;6.686;2022-09-21T03:02:39;102158.94;;;9.55;100.00
13068;BME280;6600;51.362;6.686;2022-09-21T03:05:05;102165.84;;;9.49;100.00
13068;BME280;6600;51.362;6.686;2022-09-21T03:07:30;102162.50;;;9.47;100.00
13068;BME280;6600;51.362;6.686;2022-09-21T03:09:56;102169.84;;;9.45;100.00
13068;BME280;6600;51.362;6.686;2022-09-21T03:12:22;102166.88;;;9.40;100.00
13068;BME280;6600;51.362;6.686;2022-09-21T03:14:48;102167.09;;;9.31;100.00
13068;BME280;6600;51.362;6.686;2022-09-21T03:17:15;102168.91;;;9.30;100.00
13068;BME280;6600;51.362;6.686;2022-09-21T03:19:40;102162.41;;;9.25;100.00
13068;BME280;6600;51.362;6.686;2022-09-21T03:22:06;102163.59;;;9.22;100.00
13068;BME280;6600;51.362;6.686;2022-09-21T03:24:31;102172.78;;;9.20;100.00
13068;BME280;6600;51.362;6.686;2022-09-21T03:27:17;102174.97;;;9.16;100.00
13068;BME280;6600;51.362;6.686;2022-09-21T03:29:43;102177.31;;;9.11;100.00
13068;BME280;6600;51.362;6.686;2022-09-21T03:32:08;102179.34;;;9.09;100.00
13068;BME280;6600;51.362;6.686;2022-09-21T03:34:34;102174.66;;;9.03;100.00
13068;BME280;6600;51.362;6.686;2022-09-21T03:37:04;102184.88;;;8.99;100.00
13068;BME280;6600;51.362;6.686;2022-09-21T03:39:29;102178.00;;;8.97;100.00
13068;BME280;6600;51.362;6.686;2022-09-21T03:41:56;102181.84;;;8.94;100.00
13068;BME280;6600;51.362;6.686;2022-09-21T03:44:22;102183.03;;;8.92;100.00
13068;BME280;6600;51.362;6.686;2022-09-21T03:46:48;102187.03;;;8.88;100.00
13068;BME280;6600;51.362;6.686;2022-09-21T03:49:14;102173.34;;;8.83;100.00
13068;BME280;6600;51.362;6.686;2022-09-21T03:51:40;102179.03;;;8.80;100.00
13068;BME280;6600;51.362;6.686;2022-09-21T03:54:05;102183.03;;;8.76;100.00
13068;BME280;6600;51.362;6.686;2022-09-21T03:56:30;102187.06;;;8.72;100.00
13068;BME280;6600;51.362;6.686;2022-09-21T03:58:56;102179.53;;;8.67;100.00
13068;BME280;6600;51.362;6.686;2022-09-21T04:01:21;102185.03;;;8.66;100.00
13068;BME280;6600;51.362;6.686;2022-09-21T04:03:47;102180.72;;;8.65;100.00
13068;BME280;6600;51.362;6.686;2022-09-21T04:06:13;102177.69;;;8.59;100.00
13068;BME280;6600;51.362;6.686;2022-09-21T04:08:39;102169.38;;;8.54;100.00
13068;BME280;6600;51.362;6.686;2022-09-21T04:11:16;102182.03;;;8.52;100.00
13068;BME280;6600;51.362;6.686;2022-09-21T04:13:42;102173.19;;;8.52;100.00
13068;BME280;6600;51.362;6.686;2022-09-21T04:16:10;102186.03;;;8.48;100.00
13068;BME280;6600;51.362;6.686;2022-09-21T04:18:36;102183.53;;;8.47;100.00
13068;BME280;6600;51.362;6.686;2022-09-21T04:21:04;102184.72;;;8.44;100.00
13068;BME280;6600;51.362;6.686;2022-09-21T04:23:30;102187.03;;;8.55;100.00
13068;BME280;6600;51.362;6.686;2022-09-21T04:25:55;102190.72;;;8.62;100.00
13068;BME280;6600;51.362;6.686;2022-09-21T04:28:21;102194.41;;;8.70;100.00
13068;BME280;6600;51.362;6.686;2022-09-21T04:30:51;102192.91;;;8.75;100.00
13068;BME280;6600;51.362;6.686;2022-09-21T04:33:18;102192.03;;;8.83;100.00
13068;BME280;6600;51.362;6.686;2022-09-21T04:35:44;102192.03;;;8.91;100.00
13068;BME280;6600;51.362;6.686;2022-09-21T04:38:09;102199.25;;;8.82;100.00
13068;BME280;6600;51.362;6.686;2022-09-21T04:40:35;102198.75;;;8.79;100.00
13068;BME280;6600;51.362;6.686;2022-09-21T04:43:00;102198.75;;;8.79;100.00
13068;BME280;6600;51.362;6.686;2022-09-21T04:45:26;102193.41;;;8.79;100.00
13068;BME280;6600;51.362;6.686;2022-09-21T04:47:51;102206.09;;;8.77;100.00
13068;BME280;6600;51.362;6.686;2022-09-21T04:50:16;102207.41;;;8.73;100.00
13068;BME280;6600;51.362;6.686;2022-09-21T04:52:43;102204.41;;;8.76;100.00
13068;BME280;6600;51.362;6.686;2022-09-21T04:55:08;102208.09;;;8.83;100.00
13068;BME280;6600;51.362;6.686;2022-09-21T04:57:34;102211.09;;;8.80;100.00
13068;BME280;6600;51.362;6.686;2022-09-21T05:00:00;102207.44;;;8.81;100.00
13068;BME280;6600;51.362;6.686;2022-09-21T05:02:26;102211.09;;;8.80;100.00
13068;BME280;6600;51.362;6.686;2022-09-21T05:04:51;102202.91;;;8.81;100.00
13068;BME280;6600;51.362;6.686;2022-09-21T05:07:17;102212.78;;;8.81;100.00
13068;BME280;6600;51.362;6.686;2022-09-21T05:09:42;102209.59;;;8.85;100.00
13068;BME280;6600;51.362;6.686;2022-09-21T05:12:26;102220.44;;;8.76;100.00
13068;BME280;6600;51.362;6.686;2022-09-21T05:14:51;102219.13;;;8.72;100.00
13068;BME280;6600;51.362;6.686;2022-09-21T05:17:17;102218.28;;;8.71;100.00
13068;BME280;6600;51.362;6.686;2022-09-21T05:19:42;102213.78;;;8.72;100.00
13068;BME280;6600;51.362;6.686;2022-09-21T05:22:07;102217.28;;;8.72;100.00
13068;BME280;6600;51.362;6.686;2022-09-21T05:24:33;102222.78;;;8.71;100.00
13068;BME280;6600;51.362;6.686;2022-09-21T05:26:58;102224.47;;;8.72;100.00
13068;BME280;6600;51.362;6.686;2022-09-21T05:29:24;102226.81;;;8.75;100.00
13068;BME280;6600;51.362;6.686;2022-09-21T05:31:56;102220.44;;;8.76;100.00
13068;BME280;6600;51.362;6.686;2022-09-21T05:34:48;102228.16;;;8.79;100.00
13068;BME280;6600;51.362;6.686;2022-09-21T05:40:02;102234.31;;;8.87;100.00
13068;BME280;6600;51.362;6.686;2022-09-21T05:42:28;102241.00;;;8.91;100.00
13068;BME280;6600;51.362;6.686;2022-09-21T05:44:54;102230.63;;;8.96;100.00
13068;BME280;6600;51.362;6.686;2022-09-21T05:49:59;102240.50;;;9.04;100.00
13068;BME280;6600;51.362;6.686;2022-09-21T05:52:44;102241.16;;;9.06;100.00
13068;BME280;6600;51.362;6.686;2022-09-21T06:05:51;102249.50;;;9.19;100.00
13068;BME280;6600;51.362;6.686;2022-09-21T06:08:17;102257.84;;;9.24;100.00
13068;BME280;6600;51.362;6.686;2022-09-21T06:10:42;102254.66;;;9.29;100.00
13068;BME280;6600;51.362;6.686;2022-09-21T06:13:07;102260.84;;;9.37;100.00
13068;BME280;6600;51.362;6.686;2022-09-21T06:15:33;102266.16;;;9.45;100.00
13068;BME280;6600;51.362;6.686;2022-09-21T06:18:06;102268.19;;;9.51;100.00
13068;BME280;6600;51.362;6.686;2022-09-21T06:20:32;102264.28;;;9.62;100.00
13068;BME280;6600;51.362;6.686;2022-09-21T06:23:05;102268.41;;;9.89;100.00
13068;BME280;6600;51.362;6.686;2022-09-21T06:25:30;102268.13;;;10.45;100.00
13068;BME280;6600;51.362;6.686;2022-09-21T06:28:01;102275.78;;;11.02;100.00
13068;BME280;6600;51.362;6.686;2022-09-21T06:30:28;102277.66;;;11.53;100.00
13068;BME280;6600;51.362;6.686;2022-09-21T06:32:58;102273.50;;;12.09;100.00
13068;BME280;6600;51.362;6.686;2022-09-21T06:35:23;102277.56;;;12.56;100.00
13068;BME280;6600;51.362;6.686;2022-09-21T06:37:48;102271.97;;;13.00;100.00
13068;BME280;6600;51.362;6.686;2022-09-21T06:40:14;102272.25;;;13.26;100.00
13068;BME280;6600;51.362;6.686;2022-09-21T06:42:39;102271.31;;;13.68;100.00
13068;BME280;6600;51.362;6.686;2022-09-21T06:45:05;102275.13;;;13.87;100.00
13068;BME280;6600;51.362;6.686;2022-09-21T06:47:30;102279.25;;;13.83;100.00
13068;BME280;6600;51.362;6.686;2022-09-21T06:49:56;102279.44;;;13.47;100.00
13068;BME280;6600;51.362;6.686;2022-09-21T06:52:21;102276.16;;;13.24;100.00
13068;BME280;6600;51.362;6.686;2022-09-21T06:54:46;102273.22;;;12.97;100.00
13068;BME280;6600;51.362;6.686;2022-09-21T06:57:12;102277.63;;;12.62;100.00
13068;BME280;6600;51.362;6.686;2022-09-21T06:59:37;102284.09;;;12.32;100.00
13068;BME280;6600;51.362;6.686;2022-09-21T07:02:02;102284.72;;;12.13;100.00
13068;BME280;6600;51.362;6.686;2022-09-21T07:04:28;102278.25;;;11.93;100.00
13068;BME280;6600;51.362;6.686;2022-09-21T07:06:54;102282.69;;;11.86;100.00
13068;BME280;6600;51.362;6.686;2022-09-21T07:09:19;102280.28;;;11.76;100.00
13068;BME280;6600;51.362;6.686;2022-09-21T07:11:45;102279.16;;;11.71;100.00
13068;BME280;6600;51.362;6.686;2022-09-21T07:14:10;102280.09;;;11.78;100.00
13068;BME280;6600;51.362;6.686;2022-09-21T07:16:36;102279.16;;;11.71;100.00
13068;BME280;6600;51.362;6.686;2022-09-21T07:19:01;102283.41;;;11.80;100.00
13068;BME280;6600;51.362;6.686;2022-09-21T07:21:29;102276.88;;;11.82;100.00
13068;BME280;6600;51.362;6.686;2022-09-21T07:23:54;102270.28;;;11.85;100.00
13068;BME280;6600;51.362;6.686;2022-09-21T07:26:19;102271.59;;;11.89;100.00
13068;BME280;6600;51.362;6.686;2022-09-21T07:28:46;102273.22;;;11.90;100.00
13068;BME280;6600;51.362;6.686;2022-09-21T07:31:13;102285.66;;;11.91;100.00
13068;BME280;6600;51.362;6.686;2022-09-21T07:33:43;102273.81;;;11.85;100.00
13068;BME280;6600;51.362;6.686;2022-09-21T07:36:11;102276.66;;;11.84;100.00
13068;BME280;6600;51.362;6.686;2022-09-21T07:38:39;102276.28;;;11.87;100.00
13068;BME280;6600;51.362;6.686;2022-09-21T07:41:06;102277.97;;;11.88;100.00
13068;BME280;6600;51.362;6.686;2022-09-21T07:43:31;102271.28;;;11.84;100.00
13068;BME280;6600;51.362;6.686;2022-09-21T07:45:58;102275.00;;;11.83;100.00
13068;BME280;6600;51.362;6.686;2022-09-21T07:48:26;102275.28;;;11.88;100.00
13068;BME280;6600;51.362;6.686;2022-09-21T07:50:53;102279.81;;;12.02;100.00
13068;BME280;6600;51.362;6.686;2022-09-21T07:53:19;102283.78;;;12.06;100.00
13068;BME280;6600;51.362;6.686;2022-09-21T07:55:45;102273.31;;;12.11;100.00
13068;BME280;6600;51.362;6.686;2022-09-21T07:58:10;102274.44;;;12.17;100.00
13068;BME280;6600;51.362;6.686;2022-09-21T08:00:54;102272.22;;;12.41;100.00
13068;BME280;6600;51.362;6.686;2022-09-21T08:03:19;102266.56;;;12.51;100.00
13068;BME280;6600;51.362;6.686;2022-09-21T08:05:45;102280.84;;;12.51;100.00
13068;BME280;6600;51.362;6.686;2022-09-21T08:08:10;102269.56;;;12.62;100.00
13068;BME280;6600;51.362;6.686;2022-09-21T08:10:36;102283.94;;;12.55;100.00
13068;BME280;6600;51.362;6.686;2022-09-21T08:13:04;102278.22;;;12.58;100.00
13068;BME280;6600;51.362;6.686;2022-09-21T08:15:29;102286.44;;;12.56;100.00
13068;BME280;6600;51.362;6.686;2022-09-21T08:17:55;102275.31;;;12.59;100.00
13068;BME280;6600;51.362;6.686;2022-09-21T08:20:21;102271.75;;;12.74;100.00
13068;BME280;6600;51.362;6.686;2022-09-21T08:22:47;102281.59;;;12.88;100.00
13068;BME280;6600;51.362;6.686;2022-09-21T08:25:12;102280.94;;;13.07;100.00
13068;BME280;6600;51.362;6.686;2022-09-21T08:27:38;102279.31;;;13.06;100.00
13068;BME280;6600;51.362;6.686;2022-09-21T08:30:05;102283.63;;;13.07;100.00
13068;BME280;6600;51.362;6.686;2022-09-21T08:32:31;102282.00;;;13.06;100.00
13068;BME280;6600;51.362;6.686;2022-09-21T08:34:57;102279.00;;;13.15;100.00
13068;BME280;6600;51.362;6.686;2022-09-21T08:37:22;102283.50;;;13.36;100.00
13068;BME280;6600;51.362;6.686;2022-09-21T08:39:48;102283.84;;;13.54;100.00
13068;BME280;6600;51.362;6.686;2022-09-21T08:42:44;102287.88;;;13.65;100.00
13068;BME280;6600;51.362;6.686;2022-09-21T08:45:16;102293.38;;;13.85;100.00
13068;BME280;6600;51.362;6.686;2022-09-21T08:52:47;102279.69;;;14.27;100.00
13068;BME280;6600;51.362;6.686;2022-09-21T08:55:20;102283.88;;;14.36;100.00
13068;BME280;6600;51.362;6.686;2022-09-21T08:57:45;102285.00;;;14.61;100.00
13068;BME280;6600;51.362;6.686;2022-09-21T09:00:16;102288.56;;;14.82;100.00
13068;BME280;6600;51.362;6.686;2022-09-21T09:06:02;102289.63;;;15.07;99.88
13068;BME280;6600;51.362;6.686;2022-09-21T09:14:07;102291.72;;;15.44;99.11
13068;BME280;6600;51.362;6.686;2022-09-21T09:17:15;102296.31;;;15.50;97.29
13068;BME280;6600;51.362;6.686;2022-09-21T09:19:53;102290.03;;;15.63;97.07
13068;BME280;6600;51.362;6.686;2022-09-21T09:22:28;102299.16;;;15.82;95.57
13068;BME280;6600;51.362;6.686;2022-09-21T09:25:00;102290.84;;;15.70;94.86
13068;BME280;6600;51.362;6.686;2022-09-21T09:27:33;102291.44;;;15.92;95.54
13068;BME280;6600;51.362;6.686;2022-09-21T09:30:04;102286.22;;;15.97;94.49
13068;BME280;6600;51.362;6.686;2022-09-21T09:32:56;102288.44;;;16.20;94.15
13068;BME280;6600;51.362;6.686;2022-09-21T09:35:28;102291.53;;;16.23;93.75
13068;BME280;6600;51.362;6.686;2022-09-21T09:38:03;102289.63;;;16.30;94.35
13068;BME280;6600;51.362;6.686;2022-09-21T09:41:12;102291.69;;;16.35;93.39
13068;BME280;6600;51.362;6.686;2022-09-21T09:52:04;102291.75;;;16.66;88.12
13068;BME280;6600;51.362;6.686;2022-09-21T09:54:32;102286.66;;;16.83;88.90
13068;BME280;6600;51.362;6.686;2022-09-21T09:57:00;102289.50;;;16.94;88.18
13068;BME280;6600;51.362;6.686;2022-09-21T10:02:04;102289.13;;;17.15;85.44
13068;BME280;6600;51.362;6.686;2022-09-21T10:04:31;102285.91;;;17.25;83.64
13068;BME280;6600;51.362;6.686;2022-09-21T10:06:56;102287.50;;;17.33;84.14
13068;BME280;6600;51.362;6.686;2022-09-21T10:09:27;102286.94;;;17.24;82.55
13068;BME280;6600;51.362;6.686;2022-09-21T10:12:23;102284.91;;;17.44;82.20
13068;BME280;6600;51.362;6.686;2022-09-21T10:14:50;102281.44;;;17.55;81.05
13068;BME280;6600;51.362;6.686;2022-09-21T10:17:17;102285.25;;;17.54;78.44
13068;BME280;6600;51.362;6.686;2022-09-21T10:19:43;102278.50;;;17.63;76.19
13068;BME280;6600;51.362;6.686;2022-09-21T10:22:17;102278.94;;;17.60;77.78
13068;BME280;6600;51.362;6.686;2022-09-21T10:24:48;102273.84;;;17.71;75.89
13068;BME280;6600;51.362;6.686;2022-09-21T10:27:16;102274.88;;;17.70;76.97
13068;BME280;6600;51.362;6.686;2022-09-21T10:29:48;102276.38;;;17.65;77.31
13068;BME280;6600;51.362;6.686;2022-09-21T10:34:41;102279.88;;;17.91;77.05
13068;BME280;6600;51.362;6.686;2022-09-21T10:37:32;102271.81;;;18.02;76.04
13068;BME280;6600;51.362;6.686;2022-09-21T10:42:45;102265.81;;;18.30;73.06
13068;BME280;6600;51.362;6.686;2022-09-21T10:45:13;102271.09;;;18.25;72.46
13068;BME280;6600;51.362;6.686;2022-09-21T10:47:43;102265.56;;;18.32;74.75
13068;BME280;6600;51.362;6.686;2022-09-21T10:50:23;102266.91;;;18.59;75.77
13068;BME280;6600;51.362;6.686;2022-09-21T10:52:50;102273.63;;;18.56;73.02
13068;BME280;6600;51.362;6.686;2022-09-21T10:55:21;102259.91;;;18.51;73.17
13068;BME280;6600;51.362;6.686;2022-09-21T10:57:48;102261.09;;;18.55;73.03
13068;BME280;6600;51.362;6.686;2022-09-21T11:02:49;102264.28;;;18.82;72.46
13068;BME280;6600;51.362;6.686;2022-09-21T11:08:12;102263.94;;;19.02;71.57
13068;BME280;6600;51.362;6.686;2022-09-21T11:22:08;102254.03;;;19.19;67.15
13068;BME280;6600;51.362;6.686;2022-09-21T11:27:39;102250.13;;;19.38;66.94
13068;BME280;6600;51.362;6.686;2022-09-21T11:30:15;102242.00;;;19.27;65.86
13068;BME280;6600;51.362;6.686;2022-09-21T11:38:59;102236.78;;;19.13;65.64
13068;BME280;6600;51.362;6.686;2022-09-21T11:46:45;102231.22;;;18.97;66.40
13068;BME280;6600;51.362;6.686;2022-09-21T11:52:40;102220.00;;;19.28;67.99
13068;BME280;6600;51.362;6.686;2022-09-21T11:57:51;102218.00;;;19.35;65.23
13068;BME280;6600;51.362;6.686;2022-09-21T12:00:20;102213.88;;;19.33;65.23
13068;BME280;6600;51.362;6.686;2022-09-21T12:13:51;102208.09;;;19.52;60.53
13068;BME280;6600;51.362;6.686;2022-09-21T12:19:12;102208.78;;;19.59;59.14
13068;BME280;6600;51.362;6.686;2022-09-21T12:21:49;102208.31;;;19.62;58.55
13068;BME280;6600;51.362;6.686;2022-09-21T12:24:20;102198.94;;;19.82;60.09
13068;BME280;6600;51.362;6.686;2022-09-21T12:26:54;102202.38;;;19.77;60.10
13068;BME280;6600;51.362;6.686;2022-09-21T12:30:05;102204.06;;;19.55;57.55
13068;BME280;6600;51.362;6.686;2022-09-21T12:35:05;102196.75;;;19.95;57.79
13068;BME280;6600;51.362;6.686;2022-09-21T12:37:50;102203.41;;;19.88;56.97
13068;BME280;6600;51.362;6.686;2022-09-21T12:40:37;102196.81;;;20.12;59.48
13068;BME280;6600;51.362;6.686;2022-09-21T12:43:20;102192.59;;;19.93;57.60
13068;BME280;6600;51.362;6.686;2022-09-21T12:45:55;102187.94;;;19.77;59.23
13068;BME280;6600;51.362;6.686;2022-09-21T12:48:31;102180.56;;;19.37;61.16
13068;BME280;6600;51.362;6.686;2022-09-21T12:51:03;102177.13;;;18.84;61.64
13068;BME280;6600;51.362;6.686;2022-09-21T12:53:31;102182.44;;;18.79;62.93
13068;BME280;6600;51.362;6.686;2022-09-21T13:01:30;102176.97;;;18.26;65.72
13068;BME280;6600;51.362;6.686;2022-09-21T13:09:42;102167.72;;;18.15;62.93
13068;BME280;6600;51.362;6.686;2022-09-21T13:12:15;102170.31;;;18.10;65.28
13068;BME280;6600;51.362;6.686;2022-09-21T13:14:46;102169.09;;;18.06;65.16
13068;BME280;6600;51.362;6.686;2022-09-21T13:17:25;102165.31;;;18.07;63.53
13068;BME280;6600;51.362;6.686;2022-09-21T13:20:02;102169.94;;;18.06;62.12
13068;BME280;6600;51.362;6.686;2022-09-21T13:22:31;102165.19;;;18.02;62.16
13068;BME280;6600;51.362;6.686;2022-09-21T13:31:28;102153.88;;;17.75;63.84
13068;BME280;6600;51.362;6.686;2022-09-21T13:33:38;102154.56;;;17.71;63.80
13068;BME280;6600;51.362;6.686;2022-09-21T13:36:33;102154.59;;;17.46;61.83
13068;BME280;6600;51.362;6.686;2022-09-21T13:39:16;102156.81;;;17.37;63.16
13068;BME280;6600;51.362;6.686;2022-09-21T13:41:42;102157.69;;;17.31;63.10
13068;BME280;6600;51.362;6.686;2022-09-21T13:44:18;102147.59;;;17.20;62.95
13068;BME280;6600;51.362;6.686;2022-09-21T13:46:47;102154.91;;;17.20;64.20
13068;BME280;6600;51.362;6.686;2022-09-21T13:49:21;102144.72;;;17.15;64.32
13068;BME280;6600;51.362;6.686;2022-09-21T13:54:16;102145.94;;;17.19;64.48
13068;BME280;6600;51.362;6.686;2022-09-21T13:56:44;102143.91;;;17.14;63.85
13068;BME280;6600;51.362;6.686;2022-09-21T13:59:21;102135.56;;;17.16;65.01
13068;BME280;6600;51.362;6.686;2022-09-21T14:01:48;102132.63;;;16.99;65.24
13068;BME280;6600;51.362;6.686;2022-09-21T14:04:47;102139.59;;;16.89;65.58
13068;BME280;6600;51.362;6.686;2022-09-21T14:07:13;102134.66;;;16.79;65.92
13068;BME280;6600;51.362;6.686;2022-09-21T14:09:54;102130.97;;;16.74;66.44
13068;BME280;6600;51.362;6.686;2022-09-21T14:12:23;102139.09;;;16.74;65.96
13068;BME280;6600;51.362;6.686;2022-09-21T14:17:39;102132.56;;;16.56;67.46
13068;BME280;6600;51.362;6.686;2022-09-21T14:20:25;102126.72;;;16.59;67.54
13068;BME280;6600;51.362;6.686;2022-09-21T14:23:22;102125.06;;;16.58;68.47
13068;BME280;6600;51.362;6.686;2022-09-21T14:25:55;102120.72;;;16.57;68.36
13068;BME280;6600;51.362;6.686;2022-09-21T14:28:33;102124.88;;;16.53;67.36
13068;BME280;6600;51.362;6.686;2022-09-21T14:31:14;102115.50;;;16.56;67.53
13068;BME280;6600;51.362;6.686;2022-09-21T14:33:47;102116.75;;;16.53;67.81
13068;BME280;6600;51.362;6.686;2022-09-21T14:36:17;102124.44;;;16.56;67.66
13068;BME280;6600;51.362;6.686;2022-09-21T14:39:03;102114.66;;;16.55;67.67
13068;BME280;6600;51.362;6.686;2022-09-21T14:41:38;102108.63;;;16.53;68.22
13068;BME280;6600;51.362;6.686;2022-09-21T14:44:04;102108.41;;;16.55;66.68
13068;BME280;6600;51.362;6.686;2022-09-21T14:46:38;102100.69;;;16.58;65.84
13068;BME280;6600;51.362;6.686;2022-09-21T14:51:56;102105.44;;;16.88;67.87
13068;BME280;6600;51.362;6.686;2022-09-21T15:02:47;102091.91;;;17.06;64.98
13068;BME280;6600;51.362;6.686;2022-09-21T15:05:30;102089.50;;;17.34;65.28
13068;BME280;6600;51.362;6.686;2022-09-21T15:11:25;102078.28;;;17.67;60.11
13068;BME280;6600;51.362;6.686;2022-09-21T15:19:25;102079.59;;;18.06;59.15
13068;BME280;6600;51.362;6.686;2022-09-21T15:21:56;102080.06;;;18.14;57.91
13068;BME280;6600;51.362;6.686;2022-09-21T15:24:33;102084.66;;;18.14;57.18
13068;BME280;6600;51.362;6.686;2022-09-21T15:27:13;102075.75;;;18.25;56.57
13068;BME280;6600;51.362;6.686;2022-09-21T15:29:45;102074.91;;;18.25;57.70
13068;BME280;6600;51.362;6.686;2022-09-21T15:32:38;102073.75;;;18.32;58.59
13068;BME280;6600;51.362;6.686;2022-09-21T15:35:26;102070.06;;;18.15;56.09
13068;BME280;6600;51.362;6.686;2022-09-21T15:37:51;102068.75;;;18.17;57.17
13068;BME280;6600;51.362;6.686;2022-09-21T15:45:24;102067.50;;;18.20;58.13
13068;BME280;6600;51.362;6.686;2022-09-21T15:47:52;102059.47;;;18.25;57.78
13068;BME280;6600;51.362;6.686;2022-09-21T15:50:18;102063.69;;;18.21;56.96
13068;BME280;6600;51.362;6.686;2022-09-21T15:52:48;102063.31;;;18.06;56.47
13068;BME280;6600;51.362;6.686;2022-09-21T15:55:17;102064.97;;;18.07;57.81
13068;BME280;6600;51.362;6.686;2022-09-21T15:57:48;102056.56;;;17.97;57.63
13068;BME280;6600;51.362;6.686;2022-09-21T16:02:42;102057.03;;;17.94;59.08
13068;BME280;6600;51.362;6.686;2022-09-21T16:05:15;102062.19;;;17.84;60.13
13068;BME280;6600;51.362;6.686;2022-09-21T16:07:41;102055.28;;;17.70;60.37